Main page


Airports :

Ushuaia, Argentina

Ushuaia – Malvinas Argentinas International Airport

latitude: 54-48S, longitude: 068-19W, elevation: 16 m

Current weather observation

The report was made 49 minutes ago, at 17:00 UTC
Wind 28 kt from the Southwest with gusts up to 38 kt
Temperature 10°C
Humidity 53%
Pressure 1008 hPa
Visibility 10 km or more
Few clouds at a height of 4000 ft

METAR: SAWH 201700Z 23028G38KT 9999 FEW040 10/01 Q1008

Time: 14:49 (17:49 UTC)


The report was made 6 hours and 49 minutes ago, at 11:00 UTC
Forecast valid from 20 at 12 UTC to 21 at 12 UTC
Wind 20 kt from the West/Southwest with gusts up to 30 kt
Visibility 10 km or more
Scattered clouds at a height of 3000 ft
from 20 at 14 UTC to 20 at 16 UTC
Wind 15 kt from the West
from 21 at 01 UTC to 21 at 03 UTC
Wind 20 kt from the North with gusts up to 30 kt

TAF: SAWH 201100Z 2012/2112 25020G30KT 9999 SCT030 TX14/2019Z TN05/2111Z BECMG 2014/2016 27015KT BECMG 2101/2103 36020G30KT

Weather observations and forecasts of more than 4000 airports (METAR and TAF reports).

The available stations are represented by yellow and red dots on the map.

Hover mouse over dot to see the name of the station.

Then click to see weather observations and forecasts.

To change the map : click on the green buttons with a black cross to zoom in, on the green button with a dash to zoom out, or on the green arrows for adjacent maps.